Time;durP1;ratioP1;P1;durP2;ratioP2;P2;SDS_P1;SDS_P2;PMS_P1;PMS_P2;Temp;Humidity;BMP_temperature;BMP_pressure;BME280_temperature;BME280_humidity;BME280_pressure;Samples;Min_cycle;Max_cycle;Signal;HPM_P1;HPM_P2
2022/07/31 00:00:42;;;;;;;0.00;0.00;;;19.40;99.90;;;;;;5028199;28;20061;-67
2022/07/31 00:03:09;;;;;;;0.20;0.20;;;19.40;99.90;;;;;;5029516;28;20041;-67
2022/07/31 00:05:34;;;;;;;0.00;0.00;;;19.30;99.90;;;;;;5046809;28;20401;-67
2022/07/31 00:08:00;;;;;;;0.00;0.00;;;19.20;99.90;;;;;;5037188;28;20041;-67
2022/07/31 00:10:27;;;;;;;0.10;0.10;;;19.20;99.90;;;;;;5033739;28;20148;-67
2022/07/31 00:12:52;;;;;;;0.25;0.20;;;19.20;99.90;;;;;;5029455;28;20053;-67
2022/07/31 00:15:18;;;;;;;0.10;0.10;;;19.20;99.90;;;;;;5037141;28;20072;-67
2022/07/31 00:17:44;;;;;;;0.35;0.15;;;19.10;99.90;;;;;;5029657;28;20053;-67
2022/07/31 00:20:12;;;;;;;0.00;0.00;;;19.20;99.90;;;;;;5028973;28;20041;-67
2022/07/31 00:22:39;;;;;;;0.10;0.10;;;19.20;99.90;;;;;;5027765;28;20428;-67
2022/07/31 00:25:05;;;;;;;0.20;0.20;;;19.20;99.90;;;;;;5028747;28;20049;-67
2022/07/31 00:27:31;;;;;;;0.10;0.10;;;19.20;99.90;;;;;;5028475;28;20103;-67
2022/07/31 00:29:57;;;;;;;0.00;0.00;;;19.20;99.90;;;;;;5028406;28;20053;-67
2022/07/31 00:32:23;;;;;;;0.00;0.00;;;19.20;99.90;;;;;;5029036;28;20041;-67
2022/07/31 00:34:49;;;;;;;0.10;0.10;;;19.10;99.90;;;;;;5027936;28;20044;-67
2022/07/31 00:37:15;;;;;;;0.03;0.03;;;19.10;99.90;;;;;;5027037;28;20504;-67
2022/07/31 00:39:40;;;;;;;0.10;0.10;;;19.20;99.90;;;;;;5027906;28;20040;-67
2022/07/31 00:42:24;;;;;;;0.00;0.00;;;19.20;99.90;;;;;;5038868;28;20044;-67
2022/07/31 00:44:51;;;;;;;0.20;0.20;;;19.20;99.90;;;;;;5047105;28;20055;-67
2022/07/31 00:47:18;;;;;;;0.10;0.10;;;19.20;99.90;;;;;;5048731;28;20045;-67
2022/07/31 00:49:44;;;;;;;0.10;0.10;;;19.20;99.90;;;;;;5047473;28;20052;-67
2022/07/31 00:52:10;;;;;;;0.00;0.00;;;19.20;99.90;;;;;;5032040;28;20045;-67
2022/07/31 00:54:35;;;;;;;0.25;0.25;;;19.20;99.90;;;;;;5043704;28;20123;-67
2022/07/31 00:57:02;;;;;;;0.05;0.05;;;19.20;99.90;;;;;;5027048;28;20084;-67
2022/07/31 00:59:29;;;;;;;0.05;0.05;;;19.20;99.90;;;;;;5030348;28;20071;-67
2022/07/31 01:01:56;;;;;;;0.05;0.05;;;19.30;99.90;;;;;;5041860;28;20045;-67
2022/07/31 01:04:22;;;;;;;0.10;0.10;;;19.30;99.90;;;;;;5034406;28;20041;-67
2022/07/31 01:06:47;;;;;;;0.20;0.20;;;19.40;99.90;;;;;;5038775;28;20060;-67
2022/07/31 01:09:13;;;;;;;0.00;0.00;;;19.40;99.90;;;;;;5029339;28;20041;-67
2022/07/31 01:11:58;;;;;;;0.03;0.03;;;19.40;99.90;;;;;;5044242;28;20041;-67
2022/07/31 01:14:28;;;;;;;0.00;0.00;;;19.40;99.90;;;;;;5027036;28;20406;-67
2022/07/31 01:16:56;;;;;;;0.10;0.10;;;19.40;99.90;;;;;;5027375;28;20041;-67
2022/07/31 01:19:33;;;;;;;0.20;0.20;;;19.40;99.90;;;;;;5027126;28;20038;-67
2022/07/31 01:22:13;;;;;;;0.10;0.10;;;19.40;99.90;;;;;;5028261;28;20081;-67
2022/07/31 01:25:16;;;;;;;0.00;0.00;;;19.40;99.90;;;;;;5039692;28;20053;-67
2022/07/31 01:27:51;;;;;;;0.10;0.10;;;19.40;99.90;;;;;;5027988;28;20128;-67
2022/07/31 01:30:18;;;;;;;0.00;0.00;;;19.40;99.90;;;;;;5027865;28;20045;-67
2022/07/31 01:32:48;;;;;;;0.52;0.47;;;19.40;99.90;;;;;;5038696;28;20413;-67
2022/07/31 01:35:21;;;;;;;0.30;0.30;;;19.30;99.90;;;;;;5027526;28;20493;-67
2022/07/31 01:38:02;;;;;;;0.22;0.22;;;19.40;99.90;;;;;;5029560;28;20045;-67
2022/07/31 01:40:34;;;;;;;1.75;0.90;;;19.40;99.90;;;;;;5035489;28;20036;-67
2022/07/31 01:43:06;;;;;;;0.10;0.10;;;19.40;99.90;;;;;;5046559;28;20048;-67
2022/07/31 01:45:33;;;;;;;0.00;0.00;;;19.40;99.90;;;;;;5046211;28;20080;-67
2022/07/31 01:48:00;;;;;;;0.15;0.15;;;19.40;99.90;;;;;;5033286;28;20052;-67
2022/07/31 01:50:26;;;;;;;0.10;0.10;;;19.40;99.90;;;;;;5029310;28;20041;-67
2022/07/31 01:52:54;;;;;;;0.25;0.25;;;19.40;99.90;;;;;;5047691;28;20045;-67
2022/07/31 01:55:20;;;;;;;0.00;0.00;;;19.40;99.90;;;;;;5030919;28;20102;-67
2022/07/31 01:57:47;;;;;;;0.00;0.00;;;19.40;99.90;;;;;;5028159;28;20113;-67
2022/07/31 02:00:13;;;;;;;0.00;0.00;;;19.40;99.90;;;;;;5041386;28;20481;-67
2022/07/31 02:02:41;;;;;;;0.10;0.10;;;19.40;99.90;;;;;;5030064;28;20501;-67
2022/07/31 02:05:09;;;;;;;0.00;0.00;;;19.40;99.90;;;;;;5044982;28;20041;-67
2022/07/31 02:07:40;;;;;;;0.00;0.00;;;19.30;99.90;;;;;;5045065;28;20507;-67
2022/07/31 02:10:08;;;;;;;0.47;0.47;;;19.30;99.90;;;;;;5047840;28;20041;-67
2022/07/31 02:12:35;;;;;;;0.00;0.00;;;19.30;99.90;;;;;;5039355;28;20064;-67
2022/07/31 02:15:05;;;;;;;0.00;0.00;;;19.30;99.90;;;;;;5027926;28;20037;-67
2022/07/31 02:17:31;;;;;;;0.20;0.15;;;19.30;99.90;;;;;;5028609;28;20626;-67
2022/07/31 02:19:59;;;;;;;0.20;0.15;;;19.30;99.90;;;;;;5043165;28;20087;-67
2022/07/31 02:22:25;;;;;;;0.08;0.08;;;19.30;99.90;;;;;;5046182;28;20045;-67
2022/07/31 02:24:50;;;;;;;0.00;0.00;;;19.30;99.90;;;;;;5045594;28;20082;-67
2022/07/31 02:27:16;;;;;;;0.15;0.10;;;19.30;99.90;;;;;;5030584;28;20132;-67
2022/07/31 02:29:42;;;;;;;0.08;0.08;;;19.30;99.90;;;;;;5026918;28;20045;-67
2022/07/31 02:32:09;;;;;;;0.00;0.00;;;19.30;99.90;;;;;;5041749;28;20037;-67
2022/07/31 02:34:35;;;;;;;0.00;0.00;;;19.20;99.90;;;;;;5034888;28;20037;-67
2022/07/31 02:37:02;;;;;;;0.00;0.00;;;19.20;99.90;;;;;;5028725;28;20080;-67
2022/07/31 02:39:30;;;;;;;0.52;0.35;;;19.20;99.90;;;;;;5030849;28;20581;-67
2022/07/31 02:41:59;;;;;;;0.00;0.00;;;19.20;99.90;;;;;;5040016;28;20068;-67
2022/07/31 02:44:26;;;;;;;0.00;0.00;;;19.20;99.90;;;;;;5043426;28;20452;-67
2022/07/31 02:46:52;;;;;;;0.00;0.00;;;19.20;99.90;;;;;;5031056;28;20057;-67
2022/07/31 02:49:18;;;;;;;0.00;0.00;;;19.10;99.90;;;;;;5029441;28;20412;-67
2022/07/31 02:51:44;;;;;;;0.10;0.10;;;19.20;99.90;;;;;;5042056;28;20053;-67
2022/07/31 02:54:10;;;;;;;0.10;0.10;;;19.10;99.90;;;;;;5050696;28;20041;-67
2022/07/31 02:56:36;;;;;;;0.40;0.40;;;19.10;99.90;;;;;;5033207;28;21029;-67
2022/07/31 02:59:03;;;;;;;0.00;0.00;;;19.10;99.90;;;;;;5044315;28;20063;-67
2022/07/31 03:01:33;;;;;;;0.03;0.03;;;19.10;99.90;;;;;;5038443;28;20077;-67
2022/07/31 03:03:59;;;;;;;0.10;0.10;;;19.10;99.90;;;;;;5034180;28;20045;-67
2022/07/31 03:06:24;;;;;;;0.10;0.10;;;19.10;99.90;;;;;;5030412;28;20106;-67
2022/07/31 03:08:50;;;;;;;0.08;0.08;;;19.10;99.90;;;;;;5033526;28;20040;-67
2022/07/31 03:11:16;;;;;;;0.88;0.88;;;19.10;99.90;;;;;;5041009;28;20049;-67
2022/07/31 03:13:42;;;;;;;11.68;2.55;;;19.10;99.90;;;;;;5030801;28;20037;-67
2022/07/31 03:16:12;;;;;;;0.10;0.10;;;19.10;99.90;;;;;;5030092;28;20510;-67
2022/07/31 03:18:39;;;;;;;0.10;0.10;;;19.10;99.90;;;;;;5029854;28;20053;-68
2022/07/31 03:21:08;;;;;;;0.20;0.20;;;19.00;99.90;;;;;;5029691;28;20056;-67
2022/07/31 03:23:36;;;;;;;0.03;0.03;;;19.00;99.90;;;;;;5044802;28;20037;-67
2022/07/31 03:26:04;;;;;;;0.10;0.10;;;18.90;99.90;;;;;;5038625;28;20041;-68
2022/07/31 03:28:29;;;;;;;0.10;0.10;;;18.80;99.90;;;;;;5037855;28;20049;-67
2022/07/31 03:30:55;;;;;;;0.00;0.00;;;18.80;99.90;;;;;;5038570;28;20048;-67
2022/07/31 03:33:21;;;;;;;0.00;0.00;;;18.80;99.90;;;;;;5045429;28;20050;-67
2022/07/31 03:35:48;;;;;;;0.00;0.00;;;18.80;99.90;;;;;;5030718;28;20045;-67
2022/07/31 03:38:14;;;;;;;0.52;0.52;;;18.80;99.90;;;;;;5045034;28;20048;-67
2022/07/31 03:40:40;;;;;;;0.20;0.20;;;18.80;99.90;;;;;;5031417;28;20072;-67
2022/07/31 03:43:05;;;;;;;0.28;0.28;;;18.80;99.90;;;;;;5046700;28;20064;-67
2022/07/31 03:45:36;;;;;;;0.20;0.20;;;18.90;99.90;;;;;;5048338;28;20040;-67
2022/07/31 03:48:02;;;;;;;0.00;0.00;;;18.90;99.90;;;;;;5051737;28;20054;-67
2022/07/31 03:50:28;;;;;;;0.10;0.10;;;18.90;99.90;;;;;;5029356;28;20043;-67
2022/07/31 03:52:55;;;;;;;0.40;0.40;;;18.80;99.90;;;;;;5041082;28;20076;-67
2022/07/31 03:55:21;;;;;;;0.10;0.10;;;18.80;99.90;;;;;;5049264;28;20060;-67
2022/07/31 03:57:48;;;;;;;0.30;0.30;;;18.80;99.90;;;;;;5047555;28;20033;-67
2022/07/31 04:00:14;;;;;;;0.15;0.15;;;18.80;99.90;;;;;;5042737;28;20132;-67
2022/07/31 04:02:40;;;;;;;0.10;0.10;;;18.80;99.90;;;;;;5044674;28;20087;-67
2022/07/31 04:05:06;;;;;;;0.30;0.30;;;18.80;99.90;;;;;;5049156;28;20045;-67
2022/07/31 04:07:32;;;;;;;1.35;1.08;;;18.80;99.90;;;;;;5042385;28;20116;-67
2022/07/31 04:09:58;;;;;;;0.20;0.20;;;18.80;99.90;;;;;;5029743;28;20196;-67
2022/07/31 04:12:23;;;;;;;0.10;0.10;;;18.80;99.90;;;;;;5028611;28;20397;-67
2022/07/31 04:14:49;;;;;;;0.00;0.00;;;18.80;99.90;;;;;;5029763;28;20041;-67
2022/07/31 04:17:14;;;;;;;0.03;0.03;;;18.80;99.90;;;;;;5030698;28;20073;-67
2022/07/31 04:19:40;;;;;;;0.10;0.10;;;18.80;99.90;;;;;;5049399;28;20110;-67
2022/07/31 04:22:06;;;;;;;0.40;0.32;;;18.80;99.90;;;;;;5047237;28;20029;-67
2022/07/31 04:24:31;;;;;;;0.15;0.15;;;18.80;99.90;;;;;;5044464;28;20149;-67
2022/07/31 04:26:57;;;;;;;0.00;0.00;;;18.80;99.90;;;;;;5041827;28;20393;-67
2022/07/31 04:29:23;;;;;;;0.20;0.20;;;18.80;99.90;;;;;;5048973;28;20037;-67
2022/07/31 04:31:49;;;;;;;0.10;0.10;;;18.80;99.90;;;;;;5049035;28;20701;-67
2022/07/31 04:34:15;;;;;;;0.20;0.20;;;18.90;99.90;;;;;;5032389;28;20128;-67
2022/07/31 04:36:40;;;;;;;0.20;0.20;;;18.90;99.90;;;;;;5028761;28;20072;-68
2022/07/31 04:39:06;;;;;;;0.15;0.15;;;18.80;99.90;;;;;;5037987;28;20041;-67
2022/07/31 04:41:31;;;;;;;0.43;0.43;;;18.90;99.90;;;;;;5034615;28;20045;-67
2022/07/31 04:43:58;;;;;;;0.63;0.22;;;18.90;99.90;;;;;;5048990;28;20408;-68
2022/07/31 04:46:24;;;;;;;0.25;0.20;;;18.90;99.90;;;;;;5047564;28;20053;-67
2022/07/31 04:48:50;;;;;;;0.10;0.10;;;18.90;99.90;;;;;;5032384;28;20205;-67
2022/07/31 04:51:17;;;;;;;0.20;0.20;;;18.90;99.90;;;;;;5028531;28;20136;-67
2022/07/31 04:53:43;;;;;;;0.10;0.10;;;19.00;99.90;;;;;;5036408;28;20041;-67
2022/07/31 04:58:53;;;;;;;0.75;0.75;;;19.00;99.90;;;;;;5041858;28;20049;-67
2022/07/31 05:01:18;;;;;;;0.08;0.08;;;19.00;99.90;;;;;;5036845;28;20045;-67
2022/07/31 05:03:44;;;;;;;0.00;0.00;;;19.00;99.90;;;;;;5028140;28;20076;-67
2022/07/31 05:06:11;;;;;;;0.40;0.40;;;19.00;99.90;;;;;;5027419;28;20092;-67
2022/07/31 05:08:36;;;;;;;0.70;0.70;;;19.10;99.90;;;;;;5033541;28;20182;-67
2022/07/31 05:11:21;;;;;;;0.00;0.00;;;19.00;99.90;;;;;;5027690;28;20061;-67
2022/07/31 05:13:47;;;;;;;0.20;0.20;;;19.10;99.90;;;;;;5028909;28;20038;-67
2022/07/31 05:16:13;;;;;;;0.05;0.05;;;19.10;99.90;;;;;;5043789;28;20044;-67
2022/07/31 05:18:38;;;;;;;0.10;0.10;;;19.20;99.90;;;;;;5039395;28;20403;-68
2022/07/31 05:21:04;;;;;;;0.00;0.00;;;19.20;99.90;;;;;;5046423;28;20041;-67
2022/07/31 05:23:29;;;;;;;0.00;0.00;;;19.20;99.90;;;;;;5035624;28;20091;-67
2022/07/31 05:25:55;;;;;;;0.00;0.00;;;19.20;99.90;;;;;;5034590;28;20477;-67
2022/07/31 05:28:20;;;;;;;0.28;0.28;;;19.20;99.90;;;;;;5045615;28;20037;-67
2022/07/31 05:30:46;;;;;;;0.00;0.00;;;19.30;99.90;;;;;;5046819;28;20052;-67
2022/07/31 05:33:12;;;;;;;0.10;0.10;;;19.30;99.90;;;;;;5041685;28;20041;-67
2022/07/31 05:35:37;;;;;;;0.08;0.08;;;19.30;99.90;;;;;;5046411;28;20044;-67
2022/07/31 05:38:03;;;;;;;0.00;0.00;;;19.30;99.90;;;;;;5035064;28;20041;-67
2022/07/31 05:40:28;;;;;;;0.25;0.25;;;19.30;99.90;;;;;;5028052;28;20405;-67
2022/07/31 05:42:54;;;;;;;0.10;0.10;;;19.30;99.90;;;;;;5041624;28;20159;-67
2022/07/31 05:45:20;;;;;;;0.17;0.17;;;19.20;99.90;;;;;;5041713;28;20045;-67
2022/07/31 05:47:46;;;;;;;0.90;0.40;;;19.30;99.90;;;;;;5028680;28;20048;-67
2022/07/31 05:50:11;;;;;;;0.00;0.00;;;19.20;99.90;;;;;;5046655;28;20053;-67
2022/07/31 05:52:37;;;;;;;0.32;0.32;;;19.20;99.90;;;;;;5046371;28;20049;-67
2022/07/31 05:55:03;;;;;;;0.10;0.10;;;19.30;99.90;;;;;;5039095;28;20034;-67
2022/07/31 05:57:29;;;;;;;0.03;0.03;;;19.30;99.90;;;;;;5036712;28;20056;-67
2022/07/31 05:59:54;;;;;;;0.00;0.00;;;19.30;99.90;;;;;;5037450;28;20537;-67
2022/07/31 06:02:20;;;;;;;0.10;0.10;;;19.30;99.90;;;;;;5039426;28;20041;-67
2022/07/31 06:04:45;;;;;;;0.10;0.10;;;19.40;99.90;;;;;;5034753;28;20120;-66
2022/07/31 06:07:11;;;;;;;0.20;0.20;;;19.40;99.90;;;;;;5038535;28;20088;-67
2022/07/31 06:09:36;;;;;;;0.10;0.10;;;19.40;99.90;;;;;;5061624;28;20489;-67
2022/07/31 06:12:02;;;;;;;0.08;0.08;;;19.30;99.90;;;;;;5042387;28;20521;-66
2022/07/31 06:14:28;;;;;;;0.22;0.22;;;19.30;99.90;;;;;;5031058;28;20049;-67
2022/07/31 06:16:53;;;;;;;0.10;0.10;;;19.30;99.90;;;;;;5042463;28;20094;-67
2022/07/31 06:19:19;;;;;;;0.52;0.30;;;19.40;99.90;;;;;;5047361;28;20848;-66
2022/07/31 06:21:45;;;;;;;0.17;0.17;;;19.40;99.90;;;;;;5045157;28;20545;-66
2022/07/31 06:24:11;;;;;;;0.00;0.00;;;19.40;99.90;;;;;;5041557;28;20046;-67
2022/07/31 06:26:36;;;;;;;0.45;0.40;;;19.40;99.90;;;;;;5030777;28;20084;-67
2022/07/31 06:29:03;;;;;;;0.00;0.00;;;19.40;99.90;;;;;;5039885;28;20091;-67
2022/07/31 06:31:28;;;;;;;0.45;0.45;;;19.50;99.90;;;;;;5032411;28;20111;-67
2022/07/31 06:33:54;;;;;;;0.00;0.00;;;19.50;99.90;;;;;;5042608;28;20400;-67
2022/07/31 06:36:19;;;;;;;0.10;0.10;;;19.50;99.90;;;;;;5050441;28;20140;-67
2022/07/31 06:38:45;;;;;;;0.13;0.13;;;19.60;99.90;;;;;;5048200;28;20059;-67
2022/07/31 06:41:43;;;;;;;0.08;0.08;;;19.60;99.90;;;;;;5044055;28;20076;-67
2022/07/31 06:43:57;;;;;;;0.03;0.03;;;19.50;99.90;;;;;;5039359;28;20141;-67
2022/07/31 06:46:22;;;;;;;0.05;0.05;;;19.60;99.90;;;;;;5049114;28;20127;-67
2022/07/31 06:48:48;;;;;;;0.28;0.28;;;19.70;99.90;;;;;;5042827;28;20058;-66
2022/07/31 06:51:14;;;;;;;0.17;0.17;;;19.70;99.90;;;;;;5041795;28;20432;-67
2022/07/31 06:53:40;;;;;;;1.38;1.27;;;19.70;99.90;;;;;;5048607;28;20041;-67
2022/07/31 06:56:05;;;;;;;0.30;0.15;;;19.80;99.90;;;;;;5041402;28;20447;-67
2022/07/31 06:58:31;;;;;;;0.00;0.00;;;19.80;99.90;;;;;;5042288;28;20036;-67
2022/07/31 07:00:56;;;;;;;0.52;0.52;;;19.80;99.90;;;;;;5042813;28;20056;-66
2022/07/31 07:03:22;;;;;;;0.10;0.10;;;19.90;99.90;;;;;;5048010;28;20648;-66
2022/07/31 07:05:47;;;;;;;0.10;0.10;;;19.90;99.90;;;;;;5042595;28;20049;-66
2022/07/31 07:08:13;;;;;;;0.20;0.20;;;19.90;99.90;;;;;;5038511;28;20328;-66
2022/07/31 07:10:38;;;;;;;1.08;0.57;;;19.90;99.90;;;;;;5047217;28;20045;-66
2022/07/31 07:13:04;;;;;;;0.17;0.17;;;19.90;99.90;;;;;;5045965;28;20079;-66
2022/07/31 07:15:29;;;;;;;0.32;0.20;;;20.00;99.90;;;;;;5037857;28;20136;-66
2022/07/31 07:17:55;;;;;;;0.00;0.00;;;20.00;99.90;;;;;;5043738;28;20037;-66
2022/07/31 07:20:21;;;;;;;0.22;0.22;;;20.00;99.90;;;;;;5039209;28;20065;-66
2022/07/31 07:22:46;;;;;;;0.20;0.20;;;20.10;99.90;;;;;;5047427;28;20094;-66
2022/07/31 07:25:12;;;;;;;0.25;0.25;;;20.10;99.90;;;;;;5035395;28;20072;-66
2022/07/31 07:27:37;;;;;;;0.20;0.20;;;20.10;99.90;;;;;;5046670;28;20082;-66
2022/07/31 07:30:04;;;;;;;0.10;0.10;;;20.10;99.90;;;;;;5037891;28;20045;-66
2022/07/31 07:32:30;;;;;;;0.00;0.00;;;20.10;99.90;;;;;;5043355;28;20045;-66
2022/07/31 07:34:56;;;;;;;0.08;0.08;;;20.20;99.90;;;;;;5046965;28;20396;-66
2022/07/31 07:37:21;;;;;;;0.08;0.08;;;20.20;99.90;;;;;;5033899;28;20033;-67
2022/07/31 07:39:47;;;;;;;0.08;0.08;;;20.20;99.90;;;;;;5045128;28;20049;-67
2022/07/31 07:42:12;;;;;;;1.02;0.30;;;20.20;99.90;;;;;;5032578;28;20611;-66
2022/07/31 07:44:38;;;;;;;0.20;0.20;;;20.20;99.90;;;;;;5035841;28;20460;-67
2022/07/31 07:47:04;;;;;;;0.00;0.00;;;20.20;99.90;;;;;;5035856;28;20136;-67
2022/07/31 07:49:29;;;;;;;4.57;1.65;;;20.20;99.90;;;;;;5031055;28;20120;-66
2022/07/31 07:51:55;;;;;;;3.72;0.57;;;20.20;99.90;;;;;;5029801;28;20375;-67
2022/07/31 07:54:20;;;;;;;1.35;0.60;;;20.20;99.90;;;;;;5032163;28;20044;-67
2022/07/31 07:56:46;;;;;;;0.10;0.10;;;20.10;99.90;;;;;;5039921;28;20049;-67
2022/07/31 07:59:11;;;;;;;0.57;0.57;;;20.10;99.90;;;;;;5034864;28;20053;-67
2022/07/31 08:01:37;;;;;;;0.10;0.10;;;20.10;99.90;;;;;;5048719;28;20080;-68
2022/07/31 08:04:03;;;;;;;0.43;0.43;;;20.10;99.90;;;;;;5039278;28;20489;-68
2022/07/31 08:06:28;;;;;;;0.25;0.25;;;20.10;99.90;;;;;;5038557;28;20081;-67
2022/07/31 08:08:54;;;;;;;0.00;0.00;;;20.10;99.90;;;;;;5052072;28;20041;-68
2022/07/31 08:11:19;;;;;;;0.13;0.13;;;20.10;99.90;;;;;;5039811;28;20147;-69
2022/07/31 08:13:45;;;;;;;1.90;1.20;;;20.00;99.90;;;;;;5044329;28;20041;-69
2022/07/31 08:16:11;;;;;;;0.47;0.47;;;20.00;99.90;;;;;;5044502;28;20099;-69
2022/07/31 08:18:37;;;;;;;0.00;0.00;;;20.00;99.90;;;;;;5029130;28;20037;-69
2022/07/31 08:21:02;;;;;;;2.63;1.27;;;19.90;99.90;;;;;;5037359;28;20140;-69
2022/07/31 08:23:28;;;;;;;0.17;0.17;;;19.90;99.90;;;;;;5033572;28;20119;-68
2022/07/31 08:25:53;;;;;;;0.47;0.47;;;19.90;99.90;;;;;;5040022;28;20606;-68
2022/07/31 08:28:19;;;;;;;0.00;0.00;;;19.90;99.90;;;;;;5037178;28;20048;-68
2022/07/31 08:30:45;;;;;;;0.35;0.35;;;19.90;99.90;;;;;;5031797;28;20052;-68
2022/07/31 08:33:10;;;;;;;0.10;0.10;;;19.90;99.90;;;;;;5036396;28;20049;-68
2022/07/31 08:35:36;;;;;;;0.20;0.20;;;19.90;99.90;;;;;;5033508;28;20052;-68
2022/07/31 08:38:03;;;;;;;0.25;0.25;;;19.90;99.90;;;;;;5038553;28;20047;-68
2022/07/31 08:40:29;;;;;;;0.10;0.10;;;19.90;99.90;;;;;;5033877;28;20092;-68
2022/07/31 08:42:55;;;;;;;0.25;0.25;;;19.90;99.90;;;;;;5032621;28;20523;-68
2022/07/31 08:45:21;;;;;;;0.10;0.10;;;19.90;99.90;;;;;;5031018;28;20137;-69
2022/07/31 08:47:50;;;;;;;0.08;0.08;;;20.00;99.90;;;;;;5028813;28;20120;-68
2022/07/31 08:50:16;;;;;;;0.30;0.30;;;20.00;99.90;;;;;;5028547;28;20102;-68
2022/07/31 08:52:44;;;;;;;0.65;0.43;;;20.00;99.90;;;;;;5026479;28;20048;-68
2022/07/31 08:55:11;;;;;;;0.45;0.45;;;20.00;99.90;;;;;;5028022;28;20042;-67
2022/07/31 08:57:37;;;;;;;0.40;0.40;;;20.00;99.90;;;;;;5039004;28;20490;-67
2022/07/31 09:00:09;;;;;;;0.30;0.25;;;20.00;99.90;;;;;;5030685;28;20053;-68
2022/07/31 09:02:36;;;;;;;0.05;0.05;;;20.00;99.90;;;;;;5034667;28;20120;-68
2022/07/31 09:05:03;;;;;;;0.28;0.28;;;20.00;99.90;;;;;;5038473;28;20152;-68
2022/07/31 09:07:29;;;;;;;0.22;0.17;;;20.00;99.90;;;;;;5048002;28;20052;-68
2022/07/31 09:09:55;;;;;;;0.00;0.00;;;20.00;99.90;;;;;;5034871;28;20053;-68
2022/07/31 09:12:29;;;;;;;0.52;0.43;;;20.00;99.90;;;;;;5033663;28;20053;-68
2022/07/31 09:14:54;;;;;;;0.00;0.00;;;20.00;99.90;;;;;;5038620;28;20049;-68
2022/07/31 09:17:30;;;;;;;0.10;0.10;;;19.90;99.90;;;;;;5039821;28;20036;-69
2022/07/31 09:19:56;;;;;;;0.00;0.00;;;20.00;99.90;;;;;;5030482;28;20045;-69
2022/07/31 09:22:23;;;;;;;0.25;0.25;;;19.90;99.90;;;;;;5027202;28;20038;-69
2022/07/31 09:24:49;;;;;;;0.30;0.30;;;19.90;99.90;;;;;;5047555;28;20088;-69
2022/07/31 09:27:16;;;;;;;0.22;0.22;;;19.90;99.90;;;;;;5047604;28;20076;-68
2022/07/31 09:29:44;;;;;;;0.00;0.00;;;19.90;99.90;;;;;;5043106;28;20114;-68
2022/07/31 09:32:18;;;;;;;0.03;0.03;;;19.90;99.90;;;;;;5027950;28;20076;-68
2022/07/31 09:34:45;;;;;;;0.10;0.10;;;19.90;99.90;;;;;;5028311;28;20037;-68
2022/07/31 09:37:16;;;;;;;0.65;0.45;;;19.90;99.90;;;;;;5026869;28;20499;-68
2022/07/31 09:39:49;;;;;;;0.80;0.35;;;19.90;99.90;;;;;;5032851;28;20076;-68
2022/07/31 09:42:14;;;;;;;0.30;0.30;;;19.90;99.90;;;;;;5038312;28;20211;-69
2022/07/31 09:44:45;;;;;;;0.00;0.00;;;19.90;99.90;;;;;;5031572;28;20586;-69
2022/07/31 09:47:27;;;;;;;0.45;0.45;;;19.90;99.90;;;;;;5038393;28;20049;-69
2022/07/31 09:49:55;;;;;;;0.10;0.10;;;19.80;99.90;;;;;;5047522;28;20060;-68
2022/07/31 09:52:21;;;;;;;0.22;0.22;;;19.80;99.90;;;;;;5035858;28;20046;-69
2022/07/31 09:54:47;;;;;;;0.30;0.30;;;19.80;99.90;;;;;;5030754;28;20481;-69
2022/07/31 09:57:14;;;;;;;0.28;0.28;;;19.80;99.90;;;;;;5031353;28;20136;-69
2022/07/31 09:59:40;;;;;;;14.02;1.60;;;19.80;99.90;;;;;;5030860;28;20525;-68
2022/07/31 10:02:07;;;;;;;0.10;0.10;;;19.70;99.90;;;;;;5048243;28;20067;-68
2022/07/31 10:04:36;;;;;;;0.10;0.10;;;19.80;99.90;;;;;;5045579;28;20469;-66
2022/07/31 10:07:02;;;;;;;0.17;0.17;;;19.80;99.90;;;;;;5033277;28;20184;-66
2022/07/31 10:09:29;;;;;;;0.00;0.00;;;19.70;99.90;;;;;;5051531;28;20045;-66
2022/07/31 10:11:58;;;;;;;0.00;0.00;;;19.70;99.90;;;;;;5051492;28;20045;-65
2022/07/31 10:14:27;;;;;;;0.00;0.00;;;19.70;99.90;;;;;;5039193;28;20045;-66
2022/07/31 10:16:57;;;;;;;0.57;0.57;;;19.70;99.90;;;;;;5031755;28;20060;-68
2022/07/31 10:19:26;;;;;;;0.00;0.00;;;19.60;99.90;;;;;;5034196;28;20041;-69
2022/07/31 10:21:58;;;;;;;0.20;0.20;;;19.60;99.90;;;;;;5035638;28;20048;-69
2022/07/31 10:24:27;;;;;;;0.00;0.00;;;19.60;99.90;;;;;;5034442;28;20408;-68
2022/07/31 10:26:56;;;;;;;0.08;0.08;;;19.60;99.90;;;;;;5038069;28;20133;-68
2022/07/31 10:29:21;;;;;;;2.40;0.30;;;19.60;99.90;;;;;;5030528;28;20148;-68
2022/07/31 10:31:47;;;;;;;0.10;0.10;;;19.60;99.90;;;;;;5030344;28;20201;-69
2022/07/31 10:34:15;;;;;;;0.00;0.00;;;19.70;99.90;;;;;;5030785;28;20049;-69
2022/07/31 10:36:44;;;;;;;0.00;0.00;;;19.60;99.90;;;;;;5048048;28;20123;-69
2022/07/31 10:39:47;;;;;;;0.13;0.13;;;19.70;99.90;;;;;;5049642;28;20041;-69
2022/07/31 10:42:46;;;;;;;0.10;0.10;;;19.60;99.90;;;;;;5049437;28;20055;-69
2022/07/31 10:45:15;;;;;;;0.63;0.63;;;19.60;99.90;;;;;;5036175;28;20047;-69
2022/07/31 10:47:55;;;;;;;1.45;0.82;;;19.60;99.90;;;;;;5027677;28;20129;-69
2022/07/31 10:50:26;;;;;;;0.22;0.22;;;19.60;99.90;;;;;;5044155;28;20037;-69
2022/07/31 10:52:52;;;;;;;0.35;0.35;;;19.50;99.90;;;;;;5049762;28;20504;-69
2022/07/31 10:55:21;;;;;;;0.20;0.20;;;19.50;99.90;;;;;;5036161;28;20041;-69
2022/07/31 10:57:47;;;;;;;0.17;0.17;;;19.50;99.90;;;;;;5030568;28;20056;-69
2022/07/31 11:00:19;;;;;;;0.52;0.52;;;19.50;99.90;;;;;;5030485;28;20049;-69
2022/07/31 11:02:45;;;;;;;0.00;0.00;;;19.40;99.90;;;;;;5037235;28;20053;-69
2022/07/31 11:05:14;;;;;;;0.43;0.43;;;19.40;99.90;;;;;;5038028;28;20056;-69
2022/07/31 11:07:42;;;;;;;0.20;0.20;;;19.40;99.90;;;;;;5043747;28;20404;-69
2022/07/31 11:10:15;;;;;;;0.00;0.00;;;19.40;99.90;;;;;;5044748;28;21875;-70
2022/07/31 11:12:41;;;;;;;;;;;19.30;99.90;;;;;;5048150;28;20048;-70
2022/07/31 11:15:21;;;;;;;0.00;0.00;;;19.30;99.90;;;;;;5036361;28;19957;-69
2022/07/31 11:17:47;;;;;;;2.83;0.63;;;19.30;99.90;;;;;;5029536;28;20183;-69
2022/07/31 11:20:28;;;;;;;0.13;0.13;;;19.30;99.90;;;;;;5033679;28;20107;-69
2022/07/31 11:22:59;;;;;;;0.40;0.40;;;19.30;99.90;;;;;;5041599;28;20101;-69
2022/07/31 11:25:29;;;;;;;0.03;0.03;;;19.30;99.90;;;;;;5030905;28;20044;-69
2022/07/31 11:28:14;;;;;;;0.00;0.00;;;19.30;99.90;;;;;;5046123;28;20183;-68
2022/07/31 11:31:12;;;;;;;0.00;0.00;;;19.30;99.90;;;;;;5029105;28;20053;-68
2022/07/31 11:33:41;;;;;;;0.20;0.20;;;19.30;99.90;;;;;;5031654;28;20102;-69
2022/07/31 11:36:19;;;;;;;0.00;0.00;;;19.30;99.90;;;;;;5041088;28;20045;-68
2022/07/31 11:38:55;;;;;;;0.13;0.13;;;19.40;99.90;;;;;;5045984;28;20049;-69
2022/07/31 11:41:25;;;;;;;0.13;0.13;;;19.40;99.90;;;;;;5039862;28;20037;-67
2022/07/31 11:43:51;;;;;;;0.00;0.00;;;19.50;99.90;;;;;;5045011;28;20059;-68
2022/07/31 11:46:25;;;;;;;0.10;0.10;;;19.50;99.90;;;;;;5036850;28;20044;-69
2022/07/31 11:48:51;;;;;;;0.10;0.10;;;19.60;99.90;;;;;;5039427;28;20156;-69
2022/07/31 11:51:18;;;;;;;0.03;0.03;;;19.60;99.90;;;;;;5033004;28;20128;-68
2022/07/31 11:53:44;;;;;;;0.00;0.00;;;19.60;99.90;;;;;;5040181;28;20052;-66
2022/07/31 11:56:10;;;;;;;0.00;0.00;;;19.70;99.90;;;;;;5032603;28;20504;-69
2022/07/31 11:58:36;;;;;;;0.00;0.00;;;19.80;99.90;;;;;;5035369;28;20040;-69
2022/07/31 12:01:03;;;;;;;0.00;0.00;;;19.70;99.90;;;;;;5033078;28;20057;-70
2022/07/31 12:03:32;;;;;;;0.15;0.15;;;19.90;99.90;;;;;;5029768;28;20052;-70
2022/07/31 12:05:58;;;;;;;0.08;0.08;;;19.80;99.90;;;;;;5032925;28;20092;-70
2022/07/31 12:08:24;;;;;;;0.00;0.00;;;19.80;99.90;;;;;;5029243;28;20496;-71
2022/07/31 12:10:52;;;;;;;0.00;0.00;;;19.80;99.90;;;;;;5029042;28;20452;-70
2022/07/31 12:13:19;;;;;;;0.00;0.00;;;19.80;99.90;;;;;;5056984;28;20045;-70
2022/07/31 12:16:03;;;;;;;0.03;0.03;;;19.80;99.90;;;;;;5030353;28;20050;-70
2022/07/31 12:18:51;;;;;;;0.00;0.00;;;19.80;99.90;;;;;;5028172;28;20049;-70
2022/07/31 12:21:18;;;;;;;0.00;0.00;;;19.80;99.90;;;;;;5037393;28;20064;-70
2022/07/31 12:23:48;;;;;;;0.00;0.00;;;19.90;99.90;;;;;;5044067;28;20099;-69
2022/07/31 12:26:25;;;;;;;0.10;0.10;;;19.80;99.90;;;;;;5036441;28;20052;-70
2022/07/31 12:29:08;;;;;;;0.00;0.00;;;19.80;99.90;;;;;;5030309;28;20407;-69
2022/07/31 12:31:48;;;;;;;0.13;0.13;;;19.80;99.90;;;;;;5043000;28;20664;-69
2022/07/31 12:34:38;;;;;;;0.00;0.00;;;19.80;99.90;;;;;;5039017;28;20056;-69
2022/07/31 12:37:12;;;;;;;0.00;0.00;;;19.80;99.90;;;;;;5021657;28;20057;-70
2022/07/31 12:39:53;;;;;;;0.20;0.20;;;19.90;99.90;;;;;;5052814;28;20056;-70
2022/07/31 12:42:30;;;;;;;0.10;0.10;;;20.00;99.90;;;;;;5039127;28;20036;-70
2022/07/31 12:45:03;;;;;;;0.10;0.10;;;20.10;99.90;;;;;;5034774;28;20412;-70
2022/07/31 12:47:30;;;;;;;0.00;0.00;;;20.10;99.90;;;;;;5033832;28;20387;-70
2022/07/31 12:49:57;;;;;;;0.00;0.00;;;20.10;99.90;;;;;;5040815;28;20049;-70
2022/07/31 12:52:26;;;;;;;0.55;0.55;;;20.10;99.90;;;;;;5028952;28;20050;-70
2022/07/31 12:54:52;;;;;;;0.00;0.00;;;20.10;99.90;;;;;;5043110;28;20072;-70